sensor_id;sensor_type;location;lat;lon;timestamp;pressure;altitude;pressure_sealevel;temperature;humidity
60725;BME280;59881;36.722;-4.462;2023-08-06T00:02:23;100949.50;;;22.64;58.35
60725;BME280;59881;36.722;-4.462;2023-08-06T00:04:49;100787.97;;;21.82;58.62
60725;BME280;59881;36.722;-4.462;2023-08-06T00:07:14;100706.91;;;21.07;58.61
60725;BME280;59881;36.722;-4.462;2023-08-06T00:09:40;100933.28;;;22.58;58.84
60725;BME280;59881;36.722;-4.462;2023-08-06T00:12:06;100669.25;;;21.01;58.78
60725;BME280;59881;36.722;-4.462;2023-08-06T00:14:31;100666.91;;;21.06;59.15
60725;BME280;59881;36.722;-4.462;2023-08-06T00:16:57;100817.69;;;21.72;59.13
60725;BME280;59881;36.722;-4.462;2023-08-06T00:19:22;100827.69;;;21.86;59.15
60725;BME280;59881;36.722;-4.462;2023-08-06T00:21:48;100558.41;;;19.72;59.23
60725;BME280;59881;36.722;-4.462;2023-08-06T00:24:13;100998.06;;;22.46;59.55
60725;BME280;59881;36.722;-4.462;2023-08-06T00:26:39;100570.81;;;20.31;59.79
60725;BME280;59881;36.722;-4.462;2023-08-06T00:29:04;100992.72;;;22.46;60.02
60725;BME280;59881;36.722;-4.462;2023-08-06T00:31:30;100923.09;;;22.45;59.40
60725;BME280;59881;36.722;-4.462;2023-08-06T00:33:55;100561.78;;;20.15;58.43
60725;BME280;59881;36.722;-4.462;2023-08-06T00:36:21;100922.44;;;22.43;58.21
60725;BME280;59881;36.722;-4.462;2023-08-06T00:38:46;100919.09;;;22.41;57.90
60725;BME280;59881;36.722;-4.462;2023-08-06T00:41:12;100421.19;;;18.98;57.31
60725;BME280;59881;36.722;-4.462;2023-08-06T00:43:37;100754.94;;;21.17;56.55
60725;BME280;59881;36.722;-4.462;2023-08-06T00:46:03;100867.09;;;21.78;56.17
60725;BME280;59881;36.722;-4.462;2023-08-06T00:48:29;100971.91;;;22.40;55.74
60725;BME280;59881;36.722;-4.462;2023-08-06T00:50:54;100901.97;;;22.42;55.76
60725;BME280;59881;36.722;-4.462;2023-08-06T00:53:20;100959.34;;;22.41;56.05
60725;BME280;59881;36.722;-4.462;2023-08-06T00:55:45;100753.16;;;20.77;55.92
60725;BME280;59881;36.722;-4.462;2023-08-06T00:58:12;100631.00;;;20.67;56.17
60725;BME280;59881;36.722;-4.462;2023-08-06T01:00:38;100463.00;;;19.64;56.21
60725;BME280;59881;36.722;-4.462;2023-08-06T01:03:04;100494.13;;;19.82;56.49
60725;BME280;59881;36.722;-4.462;2023-08-06T01:05:29;100619.31;;;20.19;56.66
60725;BME280;59881;36.722;-4.462;2023-08-06T01:15:56;100856.53;;;21.84;57.74
60725;BME280;59881;36.722;-4.462;2023-08-06T01:18:23;100543.22;;;19.81;57.78
60725;BME280;59881;36.722;-4.462;2023-08-06T01:20:49;100504.78;;;19.90;57.85
60725;BME280;59881;36.722;-4.462;2023-08-06T01:23:15;100353.13;;;19.02;57.99
60725;BME280;59881;36.722;-4.462;2023-08-06T01:31:24;100868.81;;;22.18;57.83
60725;BME280;59881;36.722;-4.462;2023-08-06T01:33:52;100659.75;;;20.41;57.61
60725;BME280;59881;36.722;-4.462;2023-08-06T01:36:19;100905.53;;;22.18;57.49
60725;BME280;59881;36.722;-4.462;2023-08-06T01:38:46;100692.88;;;20.56;57.05
60725;BME280;59881;36.722;-4.462;2023-08-06T01:41:11;100776.88;;;20.96;57.15
60725;BME280;59881;36.722;-4.462;2023-08-06T01:43:37;100407.88;;;19.14;57.02
60725;BME280;59881;36.722;-4.462;2023-08-06T01:46:02;100627.63;;;20.41;57.05
60725;BME280;59881;36.722;-4.462;2023-08-06T01:48:28;100948.00;;;22.14;56.96
60725;BME280;59881;36.722;-4.462;2023-08-06T01:50:53;100853.06;;;22.15;56.73
60725;BME280;59881;36.722;-4.462;2023-08-06T01:53:19;100911.09;;;22.16;56.72
60725;BME280;59881;36.722;-4.462;2023-08-06T01:55:51;100929.03;;;22.16;56.59
60725;BME280;59881;36.722;-4.462;2023-08-06T01:58:16;100462.56;;;19.77;56.34
60725;BME280;59881;36.722;-4.462;2023-08-06T02:00:42;100689.88;;;20.51;56.24
60725;BME280;59881;36.722;-4.462;2023-08-06T02:03:08;100850.38;;;22.15;55.84
60725;BME280;59881;36.722;-4.462;2023-08-06T02:05:33;100851.06;;;22.17;55.59
60725;BME280;59881;36.722;-4.462;2023-08-06T02:07:59;100342.13;;;19.05;55.27
60725;BME280;59881;36.722;-4.462;2023-08-06T02:10:24;100605.09;;;20.68;55.19
60725;BME280;59881;36.722;-4.462;2023-08-06T02:12:50;100865.16;;;22.11;55.13
60725;BME280;59881;36.722;-4.462;2023-08-06T02:15:16;100571.13;;;20.03;55.08
60725;BME280;59881;36.722;-4.462;2023-08-06T02:17:42;100598.56;;;20.62;54.81
60725;BME280;59881;36.722;-4.462;2023-08-06T02:20:08;100606.59;;;20.71;54.88
60725;BME280;59881;36.722;-4.462;2023-08-06T02:22:33;100837.84;;;22.07;55.31
60725;BME280;59881;36.722;-4.462;2023-08-06T02:24:59;100843.22;;;22.07;55.06
60725;BME280;59881;36.722;-4.462;2023-08-06T02:27:25;100700.44;;;20.77;54.78
60725;BME280;59881;36.722;-4.462;2023-08-06T02:29:50;100664.28;;;20.65;54.47
60725;BME280;59881;36.722;-4.462;2023-08-06T02:32:16;100184.03;;;18.03;54.16
60725;BME280;59881;36.722;-4.462;2023-08-06T02:34:41;100839.16;;;22.11;54.25
60725;BME280;59881;36.722;-4.462;2023-08-06T02:37:07;100832.78;;;22.13;54.15
60725;BME280;59881;36.722;-4.462;2023-08-06T02:39:32;100573.47;;;20.47;54.17
60725;BME280;59881;36.722;-4.462;2023-08-06T02:41:59;100617.25;;;20.79;54.02
60725;BME280;59881;36.722;-4.462;2023-08-06T02:44:27;100332.09;;;19.07;54.01
60725;BME280;59881;36.722;-4.462;2023-08-06T02:46:52;100521.00;;;19.80;53.87
60725;BME280;59881;36.722;-4.462;2023-08-06T02:49:18;100478.72;;;20.00;53.60
60725;BME280;59881;36.722;-4.462;2023-08-06T02:51:47;100822.22;;;22.11;53.48
60725;BME280;59881;36.722;-4.462;2023-08-06T02:54:12;100268.47;;;18.70;53.53
60725;BME280;59881;36.722;-4.462;2023-08-06T02:56:37;100559.25;;;20.38;53.47
60725;BME280;59881;36.722;-4.462;2023-08-06T02:59:03;100342.28;;;19.12;53.19
60725;BME280;59881;36.722;-4.462;2023-08-06T03:01:29;100544.91;;;19.98;53.12
60725;BME280;59881;36.722;-4.462;2023-08-06T03:03:56;100843.16;;;22.16;52.96
60725;BME280;59881;36.722;-4.462;2023-08-06T03:35:33;100805.47;;;22.09;51.74
60725;BME280;59881;36.722;-4.462;2023-08-06T03:37:58;100809.19;;;22.08;51.98
60725;BME280;59881;36.722;-4.462;2023-08-06T03:40:24;100735.84;;;21.28;51.99
60725;BME280;59881;36.722;-4.462;2023-08-06T03:42:49;100492.59;;;20.04;52.04
60725;BME280;59881;36.722;-4.462;2023-08-06T03:45:15;100798.31;;;22.01;52.10
60725;BME280;59881;36.722;-4.462;2023-08-06T03:47:41;100527.34;;;20.29;52.22
60725;BME280;59881;36.722;-4.462;2023-08-06T03:50:06;100260.16;;;18.06;52.14
60725;BME280;59881;36.722;-4.462;2023-08-06T03:52:32;100829.16;;;21.97;52.31
60725;BME280;59881;36.722;-4.462;2023-08-06T03:54:57;100790.13;;;21.95;52.30
60725;BME280;59881;36.722;-4.462;2023-08-06T03:57:23;100789.78;;;21.89;52.37
60725;BME280;59881;36.722;-4.462;2023-08-06T03:59:49;100105.28;;;17.66;52.32
60725;BME280;59881;36.722;-4.462;2023-08-06T04:02:14;99739.75;;;14.68;52.18
60725;BME280;59881;36.722;-4.462;2023-08-06T04:04:40;100790.16;;;21.78;52.65
60725;BME280;59881;36.722;-4.462;2023-08-06T04:07:06;100788.88;;;21.74;52.19
60725;BME280;59881;36.722;-4.462;2023-08-06T04:09:31;100521.16;;;19.79;52.81
60725;BME280;59881;36.722;-4.462;2023-08-06T04:11:57;100615.09;;;20.25;52.93
60725;BME280;59881;36.722;-4.462;2023-08-06T04:14:24;100706.34;;;19.97;53.31
60725;BME280;59881;36.722;-4.462;2023-08-06T04:16:49;100492.44;;;19.73;52.97
60725;BME280;59881;36.722;-4.462;2023-08-06T04:19:16;100467.03;;;18.85;53.00
60725;BME280;59881;36.722;-4.462;2023-08-06T04:21:42;100497.59;;;19.66;53.25
60725;BME280;59881;36.722;-4.462;2023-08-06T04:24:07;99771.53;;;15.04;52.99
60725;BME280;59881;36.722;-4.462;2023-08-06T04:26:33;100862.44;;;21.47;53.12
60725;BME280;59881;36.722;-4.462;2023-08-06T04:28:58;100519.19;;;19.73;53.31
60725;BME280;59881;36.722;-4.462;2023-08-06T04:31:24;100407.34;;;19.02;53.46
60725;BME280;59881;36.722;-4.462;2023-08-06T04:33:49;100512.09;;;19.63;53.54
60725;BME280;59881;36.722;-4.462;2023-08-06T04:36:15;100809.03;;;21.45;53.39
60725;BME280;59881;36.722;-4.462;2023-08-06T04:38:40;100493.59;;;19.03;53.19
60725;BME280;59881;36.722;-4.462;2023-08-06T04:41:10;100113.50;;;16.96;53.31
60725;BME280;59881;36.722;-4.462;2023-08-06T04:43:36;100679.06;;;19.85;53.43
60725;BME280;59881;36.722;-4.462;2023-08-06T04:46:01;100482.59;;;18.98;53.39
60725;BME280;59881;36.722;-4.462;2023-08-06T04:48:27;100834.50;;;21.41;53.38
60725;BME280;59881;36.722;-4.462;2023-08-06T04:50:52;100611.50;;;19.67;53.53
60725;BME280;59881;36.722;-4.462;2023-08-06T04:53:18;100629.13;;;19.86;53.51
60725;BME280;59881;36.722;-4.462;2023-08-06T04:55:44;99953.91;;;15.56;53.35
60725;BME280;59881;36.722;-4.462;2023-08-06T04:58:10;100827.59;;;21.31;53.53
60725;BME280;59881;36.722;-4.462;2023-08-06T05:00:36;99868.31;;;15.36;53.33
60725;BME280;59881;36.722;-4.462;2023-08-06T05:03:02;100841.69;;;21.33;53.22
60725;BME280;59881;36.722;-4.462;2023-08-06T05:05:28;100013.03;;;15.93;53.38
60725;BME280;59881;36.722;-4.462;2023-08-06T05:07:57;99853.47;;;14.06;53.60
60725;BME280;59881;36.722;-4.462;2023-08-06T05:10:26;100367.19;;;17.05;53.45
60725;BME280;59881;36.722;-4.462;2023-08-06T05:12:52;100108.19;;;16.52;53.71
60725;BME280;59881;36.722;-4.462;2023-08-06T05:15:18;99875.22;;;15.10;53.61
60725;BME280;59881;36.722;-4.462;2023-08-06T05:17:44;100896.09;;;21.33;53.99
60725;BME280;59881;36.722;-4.462;2023-08-06T05:20:10;100675.31;;;19.70;53.71
60725;BME280;59881;36.722;-4.462;2023-08-06T05:22:35;100623.00;;;19.68;53.74
60725;BME280;59881;36.722;-4.462;2023-08-06T05:25:01;100928.09;;;21.35;53.49
60725;BME280;59881;36.722;-4.462;2023-08-06T05:27:27;100929.59;;;21.37;53.81
60725;BME280;59881;36.722;-4.462;2023-08-06T05:29:55;100871.31;;;21.39;53.72
60725;BME280;59881;36.722;-4.462;2023-08-06T05:32:21;100891.63;;;21.42;53.50
60725;BME280;59881;36.722;-4.462;2023-08-06T05:34:47;100889.09;;;21.48;53.35
60725;BME280;59881;36.722;-4.462;2023-08-06T05:37:12;100531.44;;;19.33;52.99
60725;BME280;59881;36.722;-4.462;2023-08-06T05:39:38;100871.31;;;21.64;52.97
60725;BME280;59881;36.722;-4.462;2023-08-06T05:42:04;100841.31;;;21.36;52.55
60725;BME280;59881;36.722;-4.462;2023-08-06T05:44:29;100881.28;;;22.03;52.17
60725;BME280;59881;36.722;-4.462;2023-08-06T05:46:55;100875.00;;;22.27;51.81
60725;BME280;59881;36.722;-4.462;2023-08-06T05:49:20;100640.00;;;20.91;50.94
60725;BME280;59881;36.722;-4.462;2023-08-06T05:51:46;100466.69;;;20.13;50.30
60725;BME280;59881;36.722;-4.462;2023-08-06T05:54:11;100888.97;;;24.22;48.41
60725;BME280;59881;36.722;-4.462;2023-08-06T05:56:37;100606.75;;;23.46;46.25
60725;BME280;59881;36.722;-4.462;2023-08-06T05:59:02;100896.25;;;25.87;44.85
60725;BME280;59881;36.722;-4.462;2023-08-06T06:01:28;100635.16;;;25.06;42.99
60725;BME280;59881;36.722;-4.462;2023-08-06T06:03:53;100369.03;;;24.11;41.84
60725;BME280;59881;36.722;-4.462;2023-08-06T06:06:19;100911.59;;;27.71;40.60
60725;BME280;59881;36.722;-4.462;2023-08-06T06:08:45;100451.38;;;25.57;39.58
60725;BME280;59881;36.722;-4.462;2023-08-06T06:11:11;100861.03;;;28.81;38.62
60725;BME280;59881;36.722;-4.462;2023-08-06T06:13:36;100914.97;;;29.28;37.40
60725;BME280;59881;36.722;-4.462;2023-08-06T06:16:02;100923.56;;;29.75;37.21
60725;BME280;59881;36.722;-4.462;2023-08-06T06:18:27;100867.91;;;30.21;36.30
60725;BME280;59881;36.722;-4.462;2023-08-06T06:20:53;100863.09;;;30.72;34.80
60725;BME280;59881;36.722;-4.462;2023-08-06T06:23:19;100404.25;;;28.35;34.38
60725;BME280;59881;36.722;-4.462;2023-08-06T06:25:48;100861.03;;;31.63;33.73
60725;BME280;59881;36.722;-4.462;2023-08-06T06:28:14;100747.16;;;31.37;32.81
60725;BME280;59881;36.722;-4.462;2023-08-06T06:30:41;100585.38;;;30.92;31.88
60725;BME280;59881;36.722;-4.462;2023-08-06T06:33:07;100680.53;;;31.80;31.25
60725;BME280;59881;36.722;-4.462;2023-08-06T06:35:33;100892.69;;;33.48;30.51
60725;BME280;59881;36.722;-4.462;2023-08-06T06:37:59;100812.72;;;33.14;29.96
60725;BME280;59881;36.722;-4.462;2023-08-06T06:40:25;100857.31;;;34.14;29.74
60725;BME280;59881;36.722;-4.462;2023-08-06T06:42:50;100514.00;;;32.22;29.09
60725;BME280;59881;36.722;-4.462;2023-08-06T06:45:16;100179.13;;;30.81;28.65
60725;BME280;59881;36.722;-4.462;2023-08-06T06:47:41;100592.31;;;33.48;27.92
60725;BME280;59881;36.722;-4.462;2023-08-06T06:50:07;100908.59;;;35.65;27.38
60725;BME280;59881;36.722;-4.462;2023-08-06T06:52:33;100797.28;;;35.59;26.62
60725;BME280;59881;36.722;-4.462;2023-08-06T06:54:58;100580.44;;;34.61;26.19
60725;BME280;59881;36.722;-4.462;2023-08-06T06:57:24;100737.66;;;35.81;25.87
60725;BME280;59881;36.722;-4.462;2023-08-06T06:59:49;100852.84;;;37.16;25.47
60725;BME280;59881;36.722;-4.462;2023-08-06T07:02:15;100579.25;;;36.09;24.66
60725;BME280;59881;36.722;-4.462;2023-08-06T07:04:40;100857.41;;;38.82;24.22
60725;BME280;59881;36.722;-4.462;2023-08-06T07:07:06;100878.25;;;39.81;22.98
60725;BME280;59881;36.722;-4.462;2023-08-06T07:09:31;100756.44;;;39.98;21.89
60725;BME280;59881;36.722;-4.462;2023-08-06T07:11:57;100698.50;;;39.98;21.47
60725;BME280;59881;36.722;-4.462;2023-08-06T07:14:25;100490.28;;;39.29;21.16
60725;BME280;59881;36.722;-4.462;2023-08-06T07:16:50;100912.28;;;42.07;20.83
60725;BME280;59881;36.722;-4.462;2023-08-06T07:19:16;100569.56;;;40.36;19.92
60725;BME280;59881;36.722;-4.462;2023-08-06T07:21:42;100663.06;;;40.57;19.88
60725;BME280;59881;36.722;-4.462;2023-08-06T07:24:07;100532.59;;;40.37;19.70
60725;BME280;59881;36.722;-4.462;2023-08-06T07:26:33;100661.03;;;41.31;19.54
60725;BME280;59881;36.722;-4.462;2023-08-06T07:28:58;100563.88;;;40.88;18.83
60725;BME280;59881;36.722;-4.462;2023-08-06T07:31:24;100862.50;;;42.66;18.67
60725;BME280;59881;36.722;-4.462;2023-08-06T07:33:49;100719.38;;;41.44;18.87
60725;BME280;59881;36.722;-4.462;2023-08-06T07:36:15;100876.66;;;43.32;19.63
60725;BME280;59881;36.722;-4.462;2023-08-06T07:38:41;100784.16;;;43.77;18.53
60725;BME280;59881;36.722;-4.462;2023-08-06T07:41:07;100860.13;;;44.68;17.50
60725;BME280;59881;36.722;-4.462;2023-08-06T07:43:32;100858.78;;;45.09;17.43
60725;BME280;59881;36.722;-4.462;2023-08-06T07:46:01;100849.56;;;45.73;17.86
60725;BME280;59881;36.722;-4.462;2023-08-06T07:48:27;100715.53;;;45.41;17.37
60725;BME280;59881;36.722;-4.462;2023-08-06T07:50:56;100850.56;;;46.61;15.93
60725;BME280;59881;36.722;-4.462;2023-08-06T07:53:23;100854.09;;;46.29;15.74
60725;BME280;59881;36.722;-4.462;2023-08-06T07:55:52;100851.91;;;46.55;16.33
60725;BME280;59881;36.722;-4.462;2023-08-06T07:58:19;100859.44;;;47.21;16.64
60725;BME280;59881;36.722;-4.462;2023-08-06T08:00:45;100309.03;;;44.60;16.29
60725;BME280;59881;36.722;-4.462;2023-08-06T08:03:12;100851.25;;;48.55;16.08
60725;BME280;59881;36.722;-4.462;2023-08-06T08:05:41;100761.81;;;48.39;15.75
60725;BME280;59881;36.722;-4.462;2023-08-06T08:08:07;100844.69;;;49.07;14.50
60725;BME280;59881;36.722;-4.462;2023-08-06T08:10:33;100680.59;;;47.88;14.15
60725;BME280;59881;36.722;-4.462;2023-08-06T08:13:01;100861.66;;;48.99;14.66
60725;BME280;59881;36.722;-4.462;2023-08-06T08:15:32;100519.78;;;46.74;14.08
60725;BME280;59881;36.722;-4.462;2023-08-06T08:18:17;100771.28;;;47.94;14.20
60725;BME280;59881;36.722;-4.462;2023-08-06T08:20:43;100850.31;;;48.51;14.49
60725;BME280;59881;36.722;-4.462;2023-08-06T08:23:09;100598.53;;;47.36;14.43
60725;BME280;59881;36.722;-4.462;2023-08-06T08:25:35;100651.00;;;48.15;13.72
60725;BME280;59881;36.722;-4.462;2023-08-06T08:28:00;100774.88;;;49.62;14.03
60725;BME280;59881;36.722;-4.462;2023-08-06T08:30:26;100849.75;;;50.59;13.53
60725;BME280;59881;36.722;-4.462;2023-08-06T08:32:53;100854.84;;;50.96;12.93
60725;BME280;59881;36.722;-4.462;2023-08-06T08:35:18;100561.94;;;49.13;13.10
60725;BME280;59881;36.722;-4.462;2023-08-06T08:37:44;100496.69;;;48.89;13.01
60725;BME280;59881;36.722;-4.462;2023-08-06T08:40:09;100584.75;;;49.73;12.86
60725;BME280;59881;36.722;-4.462;2023-08-06T08:42:36;100661.06;;;50.32;12.15
60725;BME280;59881;36.722;-4.462;2023-08-06T08:45:04;100458.59;;;49.20;13.18
60725;BME280;59881;36.722;-4.462;2023-08-06T08:47:30;100856.13;;;52.02;11.68
60725;BME280;59881;36.722;-4.462;2023-08-06T08:49:57;100721.19;;;49.96;12.46
60725;BME280;59881;36.722;-4.462;2023-08-06T08:52:24;100689.50;;;47.53;13.44
60725;BME280;59881;36.722;-4.462;2023-08-06T08:54:51;100608.78;;;44.27;14.80
60725;BME280;59881;36.722;-4.462;2023-08-06T08:57:18;100861.94;;;44.38;16.33
60725;BME280;59881;36.722;-4.462;2023-08-06T08:59:44;100883.25;;;43.85;16.71
60725;BME280;59881;36.722;-4.462;2023-08-06T09:02:12;100659.81;;;42.10;17.58
60725;BME280;59881;36.722;-4.462;2023-08-06T09:04:39;100670.44;;;42.71;17.47
60725;BME280;59881;36.722;-4.462;2023-08-06T09:07:07;100895.28;;;44.38;17.74
60725;BME280;59881;36.722;-4.462;2023-08-06T09:09:35;100854.69;;;45.24;17.35
60725;BME280;59881;36.722;-4.462;2023-08-06T09:12:12;100855.66;;;45.88;16.27
60725;BME280;59881;36.722;-4.462;2023-08-06T09:14:39;100820.50;;;45.62;15.77
60725;BME280;59881;36.722;-4.462;2023-08-06T09:17:05;100867.06;;;46.24;15.67
60725;BME280;59881;36.722;-4.462;2023-08-06T09:19:32;100219.38;;;41.42;16.07
60725;BME280;59881;36.722;-4.462;2023-08-06T09:21:59;100419.53;;;41.41;16.63
60725;BME280;59881;36.722;-4.462;2023-08-06T09:24:25;100831.91;;;42.94;17.16
60725;BME280;59881;36.722;-4.462;2023-08-06T09:26:51;100903.38;;;42.33;17.75
60725;BME280;59881;36.722;-4.462;2023-08-06T09:29:17;100730.88;;;41.23;17.75
60725;BME280;59881;36.722;-4.462;2023-08-06T09:31:48;100872.72;;;41.79;17.75
60725;BME280;59881;36.722;-4.462;2023-08-06T09:34:22;100698.88;;;39.91;18.17
60725;BME280;59881;36.722;-4.462;2023-08-06T09:36:48;100883.00;;;40.80;18.32
60725;BME280;59881;36.722;-4.462;2023-08-06T09:39:21;100565.16;;;38.94;18.62
60725;BME280;59881;36.722;-4.462;2023-08-06T09:41:47;100879.28;;;41.23;18.18
60725;BME280;59881;36.722;-4.462;2023-08-06T09:44:20;100908.56;;;41.56;17.54
60725;BME280;59881;36.722;-4.462;2023-08-06T09:46:49;100731.66;;;40.96;17.35
60725;BME280;59881;36.722;-4.462;2023-08-06T09:49:24;100836.13;;;41.96;17.26
60725;BME280;59881;36.722;-4.462;2023-08-06T09:51:51;100634.47;;;40.80;16.94
60725;BME280;59881;36.722;-4.462;2023-08-06T09:54:19;100908.16;;;42.18;17.47
60725;BME280;59881;36.722;-4.462;2023-08-06T09:56:44;100655.72;;;40.66;17.21
60725;BME280;59881;36.722;-4.462;2023-08-06T09:59:10;100879.81;;;42.72;16.76
60725;BME280;59881;36.722;-4.462;2023-08-06T10:01:38;100403.38;;;40.11;16.63
60725;BME280;59881;36.722;-4.462;2023-08-06T10:04:05;100601.19;;;41.86;16.32
60725;BME280;59881;36.722;-4.462;2023-08-06T10:06:35;100270.84;;;39.52;16.57
60725;BME280;59881;36.722;-4.462;2023-08-06T10:09:02;100881.50;;;43.04;16.48
60725;BME280;59881;36.722;-4.462;2023-08-06T10:11:29;100674.78;;;41.36;17.03
60725;BME280;59881;36.722;-4.462;2023-08-06T10:14:02;100885.53;;;43.20;16.62
60725;BME280;59881;36.722;-4.462;2023-08-06T10:16:29;100532.69;;;40.87;17.11
60725;BME280;59881;36.722;-4.462;2023-08-06T10:18:56;100850.88;;;43.01;16.86
60725;BME280;59881;36.722;-4.462;2023-08-06T10:21:25;100876.88;;;43.85;16.64
60725;BME280;59881;36.722;-4.462;2023-08-06T10:23:56;100717.84;;;43.01;16.65
60725;BME280;59881;36.722;-4.462;2023-08-06T10:26:25;100904.13;;;43.83;16.94
60725;BME280;59881;36.722;-4.462;2023-08-06T10:28:52;100880.75;;;43.75;16.89
60725;BME280;59881;36.722;-4.462;2023-08-06T10:31:18;100914.41;;;43.51;17.07
60725;BME280;59881;36.722;-4.462;2023-08-06T10:33:47;100872.34;;;43.49;17.38
60725;BME280;59881;36.722;-4.462;2023-08-06T10:36:14;100864.47;;;43.42;17.63
60725;BME280;59881;36.722;-4.462;2023-08-06T10:38:48;100902.13;;;42.89;18.20
60725;BME280;59881;36.722;-4.462;2023-08-06T10:41:23;100585.50;;;40.72;18.91
60725;BME280;59881;36.722;-4.462;2023-08-06T10:43:49;100570.59;;;40.54;18.78
60725;BME280;59881;36.722;-4.462;2023-08-06T10:46:27;100863.31;;;42.30;18.93
60725;BME280;59881;36.722;-4.462;2023-08-06T10:48:53;100903.34;;;40.70;20.51
60725;BME280;59881;36.722;-4.462;2023-08-06T10:51:19;100623.94;;;36.35;23.41
60725;BME280;59881;36.722;-4.462;2023-08-06T10:53:46;100876.09;;;35.47;26.44
60725;BME280;59881;36.722;-4.462;2023-08-06T10:56:17;100875.53;;;34.09;28.52
60725;BME280;59881;36.722;-4.462;2023-08-06T10:58:44;100627.88;;;31.45;30.03
60725;BME280;59881;36.722;-4.462;2023-08-06T11:01:10;100921.06;;;32.56;30.92
60725;BME280;59881;36.722;-4.462;2023-08-06T11:03:37;100868.81;;;32.07;31.53
60725;BME280;59881;36.722;-4.462;2023-08-06T11:06:03;100640.03;;;30.13;32.33
60725;BME280;59881;36.722;-4.462;2023-08-06T11:08:35;100868.72;;;31.43;32.94
60725;BME280;59881;36.722;-4.462;2023-08-06T11:11:11;100864.06;;;31.20;33.45
60725;BME280;59881;36.722;-4.462;2023-08-06T11:13:38;100939.78;;;31.11;34.48
60725;BME280;59881;36.722;-4.462;2023-08-06T11:16:05;100867.13;;;31.00;34.21
60725;BME280;59881;36.722;-4.462;2023-08-06T11:18:34;100861.31;;;30.96;34.12
60725;BME280;59881;36.722;-4.462;2023-08-06T11:21:01;100741.88;;;30.22;33.84
60725;BME280;59881;36.722;-4.462;2023-08-06T11:23:29;100738.56;;;30.20;33.51
60725;BME280;59881;36.722;-4.462;2023-08-06T11:25:56;100369.56;;;27.89;34.16
60725;BME280;59881;36.722;-4.462;2023-08-06T11:28:22;100860.97;;;30.74;33.96
60725;BME280;59881;36.722;-4.462;2023-08-06T11:30:48;100542.03;;;28.75;33.40
60725;BME280;59881;36.722;-4.462;2023-08-06T11:33:14;100343.69;;;27.49;32.43
60725;BME280;59881;36.722;-4.462;2023-08-06T11:35:40;100560.09;;;28.38;33.12
60725;BME280;59881;36.722;-4.462;2023-08-06T11:38:06;100705.78;;;30.03;32.79
60725;BME280;59881;36.722;-4.462;2023-08-06T11:40:33;100904.31;;;30.87;32.01
60725;BME280;59881;36.722;-4.462;2023-08-06T11:43:00;100843.41;;;30.88;31.74
60725;BME280;59881;36.722;-4.462;2023-08-06T11:45:26;100709.78;;;30.31;32.12
60725;BME280;59881;36.722;-4.462;2023-08-06T11:47:52;100884.59;;;31.04;32.22
60725;BME280;59881;36.722;-4.462;2023-08-06T11:50:26;100883.81;;;30.85;32.59
60725;BME280;59881;36.722;-4.462;2023-08-06T11:52:59;100839.41;;;30.61;32.10
60725;BME280;59881;36.722;-4.462;2023-08-06T11:55:26;100641.09;;;28.71;31.75
60725;BME280;59881;36.722;-4.462;2023-08-06T11:57:53;100838.56;;;30.30;32.81
60725;BME280;59881;36.722;-4.462;2023-08-06T12:00:19;100820.09;;;30.20;33.32
60725;BME280;59881;36.722;-4.462;2023-08-06T12:02:47;100601.47;;;29.14;33.08
60725;BME280;59881;36.722;-4.462;2023-08-06T12:05:18;100582.19;;;29.22;32.75
60725;BME280;59881;36.722;-4.462;2023-08-06T12:07:56;100826.13;;;30.52;33.09
60725;BME280;59881;36.722;-4.462;2023-08-06T12:10:24;100838.44;;;30.55;32.88
60725;BME280;59881;36.722;-4.462;2023-08-06T12:12:50;100822.34;;;30.23;31.95
60725;BME280;59881;36.722;-4.462;2023-08-06T12:15:16;100722.94;;;29.48;32.77
60725;BME280;59881;36.722;-4.462;2023-08-06T12:17:42;100444.56;;;27.81;32.74
60725;BME280;59881;36.722;-4.462;2023-08-06T12:20:09;100706.97;;;29.59;33.07
60725;BME280;59881;36.722;-4.462;2023-08-06T12:22:35;100817.28;;;30.08;35.26
60725;BME280;59881;36.722;-4.462;2023-08-06T12:25:02;100850.56;;;30.04;35.12
60725;BME280;59881;36.722;-4.462;2023-08-06T12:27:44;100554.03;;;28.17;34.39
60725;BME280;59881;36.722;-4.462;2023-08-06T12:30:10;100814.91;;;30.00;34.80
60725;BME280;59881;36.722;-4.462;2023-08-06T12:32:37;100816.75;;;30.00;34.56
60725;BME280;59881;36.722;-4.462;2023-08-06T12:35:03;100816.41;;;29.96;33.92
60725;BME280;59881;36.722;-4.462;2023-08-06T12:37:30;100767.44;;;29.66;33.59
60725;BME280;59881;36.722;-4.462;2023-08-06T12:39:55;100746.34;;;29.49;34.07
60725;BME280;59881;36.722;-4.462;2023-08-06T12:42:21;100565.06;;;28.47;35.41
60725;BME280;59881;36.722;-4.462;2023-08-06T12:44:48;100719.72;;;29.58;35.06
60725;BME280;59881;36.722;-4.462;2023-08-06T12:47:14;100570.03;;;28.69;34.14
60725;BME280;59881;36.722;-4.462;2023-08-06T12:49:39;100839.19;;;30.14;35.48
60725;BME280;59881;36.722;-4.462;2023-08-06T12:52:05;100809.13;;;30.08;34.96
60725;BME280;59881;36.722;-4.462;2023-08-06T12:54:32;100609.50;;;28.83;34.51
60725;BME280;59881;36.722;-4.462;2023-08-06T12:57:05;100742.94;;;29.73;34.42
60725;BME280;59881;36.722;-4.462;2023-08-06T12:59:31;100549.19;;;28.44;34.90
60725;BME280;59881;36.722;-4.462;2023-08-06T13:01:57;100800.34;;;29.95;34.07
60725;BME280;59881;36.722;-4.462;2023-08-06T13:04:22;100458.28;;;27.86;33.97
60725;BME280;59881;36.722;-4.462;2023-08-06T13:06:48;100795.81;;;29.88;33.66
60725;BME280;59881;36.722;-4.462;2023-08-06T13:09:15;100375.28;;;27.30;34.36
60725;BME280;59881;36.722;-4.462;2023-08-06T13:11:41;100573.44;;;28.39;34.50
60725;BME280;59881;36.722;-4.462;2023-08-06T13:14:08;100625.16;;;28.63;33.94
60725;BME280;59881;36.722;-4.462;2023-08-06T13:16:35;100788.34;;;29.84;33.85
60725;BME280;59881;36.722;-4.462;2023-08-06T13:19:01;100592.75;;;28.50;33.52
60725;BME280;59881;36.722;-4.462;2023-08-06T13:24:05;100747.34;;;29.74;34.01